D/T METAR WX W/DIR W/SPE G/SPE TEMP DEWP
16/01/19 02:50 EGPI 160250Z AUTO 27019KT 9999 -RA FEW027/// BKN044/// 08/06 Q0997 -RA W (270°) 21.9mph 8°C 6°C
16/01/19 02:20 EGPI 160220Z AUTO 26016KT 9999 -RA FEW027/// 08/07 Q0997 -RA W (260°) 18.4mph 8°C 7°C
16/01/19 01:50 EGPI 160150Z AUTO 27014KT 7000 -RA FEW009/// BKN027/// 08/07 Q0998 -RA W (270°) 16.1mph 8°C 7°C
16/01/19 01:20 EGPI 160120Z AUTO 27012KT 7000 -RA FEW008/// BKN023/// 08/08 Q0998 -RA W (270°) 13.8mph 8°C 8°C
16/01/19 00:50 EGPI 160050Z AUTO 28015KT 9999 FEW011/// BKN021/// 08/07 Q0998 W (280°) 17.3mph 8°C 7°C
16/01/19 00:20 EGPI 160020Z AUTO 21018KT 170V240 9999 FEW023/// BKN032/// 09/07 Q0998 SSW (210°) 20.7mph 9°C 7°C
15/01/19 23:50 EGPI 152350Z AUTO 20019KT 170V230 9999 SCT034/// BKN043/// 09/07 Q0998 SSW (200°) 21.9mph 9°C 7°C
15/01/19 23:20 EGPI 152320Z AUTO 21020KT 9999 SCT034/// 09/07 Q0999 SSW (210°) 23.0mph 9°C 7°C
15/01/19 22:50 EGPI 152250Z AUTO 21018KT 180V240 9999 FEW023/// BKN039/// 09/07 Q1000 SSW (210°) 20.7mph 9°C 7°C
15/01/19 22:20 EGPI 152220Z AUTO 20016KT 170V230 9999 SCT023/// SCT031/// 09/07 Q1000 SSW (200°) 18.4mph 9°C 7°C
15/01/19 21:50 EGPI 152150Z AUTO 20016KT 170V230 9999 FEW021/// 09/07 Q1001 SSW (200°) 18.4mph 9°C 7°C
15/01/19 21:20 EGPI 152120Z AUTO 22018KT 9999 BKN020/// 09/07 Q1001 SW (220°) 20.7mph 9°C 7°C
15/01/19 20:50 EGPI 152050Z AUTO 22019KT 9999 OVC024/// 10/07 Q1002 SW (220°) 21.9mph 10°C 7°C
15/01/19 20:20 EGPI 152020Z AUTO 22018KT 9999 BKN024/// 10/07 Q1002 SW (220°) 20.7mph 10°C 7°C
15/01/19 19:50 EGPI 151950Z AUTO 22019KT 190V250 9999 BKN024/// 09/07 Q1003 SW (220°) 21.9mph 9°C 7°C
15/01/19 19:20 EGPI 151920Z AUTO 21015KT 9999 FEW018/// SCT025/// 09/07 Q1003 SSW (210°) 17.3mph 9°C 7°C
15/01/19 18:50 EGPI 151850Z 22018KT 9999 BKN023 09/08 Q1004 SW (220°) 20.7mph 9°C 8°C
15/01/19 18:20 EGPI 151820Z 21015KT 170V230 9999 FEW013 BKN022 09/08 Q1004 SSW (210°) 17.3mph 9°C 8°C
15/01/19 17:50 EGPI 151750Z 20013KT 170V230 9999 FEW013 SCT020 BKN042 09/08 Q1004 SSW (200°) 15.0mph 9°C 8°C
15/01/19 17:20 EGPI 151720Z 21012KT 9999 FEW013 BKN042 09/08 Q1005 SSW (210°) 13.8mph 9°C 8°C
15/01/19 16:50 EGPI 151650Z 22013KT 190V250 9999 VCSH FEW014 SCT017 BKN039 09/08 Q1005 VCSH SW (220°) 15.0mph 9°C 8°C
15/01/19 16:20 EGPI 151620Z 23014KT 200V260 9999 VCSH FEW013 BKN042 09/08 Q1006 VCSH SW (230°) 16.1mph 9°C 8°C
15/01/19 15:50 EGPI 151550Z 21016KT 9999 VCSH FEW011 SCT017 BKN048 09/08 Q1006 VCSH SSW (210°) 18.4mph 9°C 8°C
15/01/19 15:20 EGPI 151520Z 21015KT 180V240 9999 VCSH FEW012 BKN016 09/08 Q1006 VCSH SSW (210°) 17.3mph 9°C 8°C
15/01/19 14:50 EGPI 151450Z 20014KT 170V230 9999 VCSH FEW013 BKN023 09/08 Q1007 VCSH SSW (200°) 16.1mph 9°C 8°C
15/01/19 13:50 EGPI 151350Z 20012KT 170V230 9999 FEW025 BKN037 BKN044 10/07 Q1008 SSW (200°) 13.8mph 10°C 7°C
15/01/19 13:20 EGPI 151320Z 21015KT 180V240 9999 FEW025 BKN043 09/07 Q1009 SSW (210°) 17.3mph 9°C 7°C
15/01/19 12:50 EGPI 151250Z 23015KT 9999 FEW025 BKN045 10/07 Q1009 SW (230°) 17.3mph 10°C 7°C
15/01/19 12:20 EGPI 151220Z 21015KT 9999 FEW020 BKN048 10/07 Q1009 SSW (210°) 17.3mph 10°C 7°C
15/01/19 11:50 EGPI 151150Z 23014KT 200V260 9999 FEW022 BKN048 10/08 Q1009 SW (230°) 16.1mph 10°C 8°C
15/01/19 10:50 EGPI 151050Z 22012KT 9999 FEW018 SCT031 BKN041 10/08 Q1010 SW (220°) 13.8mph 10°C 8°C
15/01/19 10:20 EGPI 151020Z 24020KT 9999 FEW019 SCT032 BKN039 10/08 Q1011 WSW (240°) 23.0mph 10°C 8°C
15/01/19 09:50 EGPI 150950Z 24015KT 9999 SCT019 BKN024 10/08 Q1011 WSW (240°) 17.3mph 10°C 8°C
15/01/19 09:20 EGPI 150920Z 22013KT 9999 FEW016 SCT022 BKN043 10/08 Q1011 SW (220°) 15.0mph 10°C 8°C
15/01/19 08:50 EGPI 150850Z 22013KT 190V250 9999 FEW021 BKN043 10/07 Q1011 SW (220°) 15.0mph 10°C 7°C
15/01/19 08:20 EGPI 150820Z 23013KT 9999 FEW016 BKN042 10/08 Q1011 SW (230°) 15.0mph 10°C 8°C
15/01/19 07:50 EGPI 150750Z 24016KT 9999 FEW014 SCT026 10/08 Q1011 WSW (240°) 18.4mph 10°C 8°C
15/01/19 07:20 EGPI 150720Z AUTO 24018KT 9999 FEW011/// 10/08 Q1011 WSW (240°) 20.7mph 10°C 8°C
15/01/19 06:50 EGPI 150650Z AUTO 25020KT 210V270 9999 BKN010/// 10/09 Q1012 WSW (250°) 23.0mph 10°C 9°C
15/01/19 06:20 EGPI 150620Z AUTO 25019KT 8000 BKN010/// 10/09 Q1012 WSW (250°) 21.9mph 10°C 9°C
15/01/19 05:50 EGPI 150550Z AUTO 25019KT 7000 BKN009/// BKN017/// 10/09 Q1012 WSW (250°) 21.9mph 10°C 9°C
15/01/19 05:20 EGPI 150520Z AUTO 25018KT 7000 BKN009/// BKN016/// 10/09 Q1012 WSW (250°) 20.7mph 10°C 9°C
15/01/19 04:50 EGPI 150450Z AUTO 25017KT 7000 OVC009/// 10/09 Q1012 WSW (250°) 19.6mph 10°C 9°C
15/01/19 04:20 EGPI 150420Z AUTO 25018KT 7000 OVC009/// 10/09 Q1012 WSW (250°) 20.7mph 10°C 9°C
15/01/19 03:50 EGPI 150350Z AUTO 25019KT 7000 BKN009/// BKN017/// 10/09 Q1013 WSW (250°) 21.9mph 10°C 9°C
15/01/19 03:20 EGPI 150320Z AUTO 25019KT 8000 BKN009/// BKN020/// 10/09 Q1013 WSW (250°) 21.9mph 10°C 9°C
15/01/19 02:50 EGPI 150250Z AUTO 25020KT 8000 SCT009/// SCT017/// BKN020/// 10/09 Q1013 WSW (250°) 23.0mph 10°C 9°C
15/01/19 02:20 EGPI 150220Z AUTO 25019KT 220V280 8000 BKN009/// BKN017/// 10/09 Q1014 WSW (250°) 21.9mph 10°C 9°C
15/01/19 01:50 EGPI 150150Z AUTO 25020KT 8000 BKN009/// 10/09 Q1014 WSW (250°) 23.0mph 10°C 9°C
15/01/19 01:20 EGPI 150120Z AUTO 25019KT 200V270 8000 BKN009/// 10/09 Q1014 WSW (250°) 21.9mph 10°C 9°C
15/01/19 00:50 EGPI 150050Z AUTO 25020KT 220V280 9999 BKN012/// SCT042/// 10/09 Q1014 WSW (250°) 23.0mph 10°C 9°C
15/01/19 00:20 EGPI 150020Z AUTO 25018KT 9999 SCT042/// BKN049/// 10/08 Q1015 WSW (250°) 20.7mph 10°C 8°C
14/01/19 23:50 EGPI 142350Z AUTO 25018KT 9999 NCD 09/08 Q1015 WSW (250°) 20.7mph 9°C 8°C
14/01/19 23:20 EGPI 142320Z AUTO 25016KT 9999 FEW010/// 09/08 Q1015 WSW (250°) 18.4mph 9°C 8°C
14/01/19 22:50 EGPI 142250Z AUTO 25016KT 9999 SCT010/// 09/08 Q1015 WSW (250°) 18.4mph 9°C 8°C
14/01/19 22:20 EGPI 142220Z AUTO 25018KT 9999 SCT009/// 09/09 Q1015 WSW (250°) 20.7mph 9°C 9°C
14/01/19 21:50 EGPI 142150Z AUTO 25016KT 9999 SCT009/// 09/09 Q1015 WSW (250°) 18.4mph 9°C 9°C
14/01/19 21:20 EGPI 142120Z AUTO 25016KT 220V280 9999 FEW011/// BKN049/// 09/08 Q1016 RERA WSW (250°) 18.4mph 9°C 8°C
14/01/19 20:50 EGPI 142050Z AUTO 26016KT 9999 FEW009/// BKN019/// 09/09 Q1016 RERA W (260°) 18.4mph 9°C 9°C
14/01/19 20:20 EGPI 142020Z AUTO 25015KT 2700 -RADZ BKN011/// SCT017/// 09/09 Q1016 -RA -DZ WSW (250°) 17.3mph 9°C 9°C
14/01/19 19:50 EGPI 141950Z AUTO 26018KT 230V290 9999 SCT011/// BKN022/// 09/08 Q1016 RERA W (260°) 20.7mph 9°C 8°C
14/01/19 19:20 EGPI 141920Z AUTO 25015KT 9999 SCT006/// BKN011/// BKN018/// 09/09 Q1016 RERA WSW (250°) 17.3mph 9°C 9°C
14/01/19 18:50 EGPI 141850Z AUTO 22015KT 2200 -RA BKN004/// BKN020/// 08/08 Q1017 -RA SW (220°) 17.3mph 8°C 8°C
14/01/19 18:20 EGPI 141820Z AUTO 22015KT 3400 BR OVC003/// 08/08 Q1017 REDZ BR SW (220°) 17.3mph 8°C 8°C
14/01/19 17:50 EGPI 141750Z AUTO 23015KT 200V260 9999 BKN007/// 08/08 Q1017 REDZ SW (230°) 17.3mph 8°C 8°C
14/01/19 17:20 EGPI 141720Z 23014KT 9999 SCT004 SCT011 BKN020 08/08 Q1017 SW (230°) 16.1mph 8°C 8°C
14/01/19 16:50 EGPI 141650Z 23014KT 5000 DZRA BKN003 SCT012 08/08 Q1018 DZ RA SW (230°) 16.1mph 8°C 8°C
14/01/19 16:20 EGPI 141620Z AUTO 25014KT 3400 BR FEW003/// BKN009/// 08/08 Q1018 BR WSW (250°) 16.1mph 8°C 8°C
14/01/19 15:50 EGPI 141550Z 25014KT 9999 FEW009 SCT020 BKN049 08/07 Q1018 WSW (250°) 16.1mph 8°C 7°C
14/01/19 15:20 EGPI 141520Z 26012KT 9999 VCSH FEW009 BKN014 08/07 Q1018 VCSH W (260°) 13.8mph 8°C 7°C
14/01/19 14:50 EGPI 141450Z 28015KT 9999 -RA FEW018 SCT021 BKN044 08/07 Q1019 -RA W (280°) 17.3mph 8°C 7°C
14/01/19 14:20 EGPI 141420Z 27015KT 9999 FEW028 BKN045 08/06 Q1019 W (270°) 17.3mph 8°C 6°C
14/01/19 13:50 EGPI 141350Z 27014KT 250V310 9999 -RA FEW012 SCT027 08/06 Q1019 -RA W (270°) 16.1mph 8°C 6°C
14/01/19 13:20 EGPI 141320Z 27011KT 9999 VCSH SCT035 SCT045 08/07 Q1019 VCSH W (270°) 12.7mph 8°C 7°C
14/01/19 12:50 EGPI 141250Z AUTO 28016KT 260V320 9999 FEW017/// BKN036/// 09/06 Q1020 RERA W (280°) 18.4mph 9°C 6°C
14/01/19 12:20 EGPI 141220Z 28017KT 260V360 9999 SCT049 09/05 Q1020 W (280°) 19.6mph 9°C 5°C
14/01/19 11:50 EGPI 141150Z 28010KT 9999 VCSH FEW026 SCT033 08/05 Q1020 VCSH W (280°) 11.5mph 8°C 5°C
14/01/19 11:20 EGPI 141120Z 28012KT 260V360 9999 SCT045 08/04 Q1020 W (280°) 13.8mph 8°C 4°C
14/01/19 10:50 EGPI 141050Z 29018KT 9999 BKN032 07/05 Q1020 WNW (290°) 20.7mph 7°C 5°C
14/01/19 10:20 EGPI 141020Z 30014KT 9999 SCT039 08/03 Q1019 WNW (300°) 16.1mph 8°C 3°C
14/01/19 09:50 EGPI 140950Z 30012KT 9999 SCT034 SCT045 08/04 Q1019 WNW (300°) 13.8mph 8°C 4°C
14/01/19 09:20 EGPI 140920Z 29018KT 9999 BKN036 08/04 Q1020 WNW (290°) 20.7mph 8°C 4°C
14/01/19 08:50 EGPI 140850Z 30011KT 9999 SCT046 07/04 Q1019 WNW (300°) 12.7mph 7°C 4°C
14/01/19 08:20 EGPI 140820Z 32011KT 9999 SCT030 BKN042 07/05 Q1019 NW (320°) 12.7mph 7°C 5°C
14/01/19 07:50 EGPI 140750Z 30017KT 9999 BKN045 08/04 Q1019 WNW (300°) 19.6mph 8°C 4°C
14/01/19 07:20 EGPI 140720Z AUTO 30020KT 9999 BKN045/// 08/04 Q1019 RERA WNW (300°) 23.0mph 8°C 4°C
14/01/19 06:50 EGPI 140650Z AUTO 31011KT 9999 FEW039/// BKN044/// 07/05 Q1018 RERA NW (310°) 12.7mph 7°C 5°C
14/01/19 06:20 EGPI 140620Z AUTO 30014KT 9999 FEW039/// BKN044/// 08/03 Q1018 WNW (300°) 16.1mph 8°C 3°C
14/01/19 05:50 EGPI 140550Z AUTO 30016KT 9999 BKN043/// 08/04 Q1018 WNW (300°) 18.4mph 8°C 4°C
14/01/19 05:20 EGPI 140520Z AUTO 32013KT 9999 FEW035/// BKN043/// 07/05 Q1018 NW (320°) 15.0mph 7°C 5°C
14/01/19 04:50 EGPI 140450Z AUTO 30017KT 9999 FEW025/// BKN042/// 08/05 Q1018 WNW (300°) 19.6mph 8°C 5°C
14/01/19 04:20 EGPI 140420Z AUTO 31017KT 9999 FEW025/// BKN043/// 08/05 Q1018 NW (310°) 19.6mph 8°C 5°C
14/01/19 03:50 EGPI 140350Z AUTO 31016KT 9999 BKN034/// 07/04 Q1017 NW (310°) 18.4mph 7°C 4°C
14/01/19 03:20 EGPI 140320Z AUTO 31019KT 9999 BKN038/// 08/04 Q1017 NW (310°) 21.9mph 8°C 4°C
14/01/19 02:50 EGPI 140250Z AUTO 31018KT 9999 NCD 07/05 Q1017 NW (310°) 20.7mph 7°C 5°C
14/01/19 02:20 EGPI 140220Z AUTO 31017KT 9999 NCD 07/04 Q1017 NW (310°) 19.6mph 7°C 4°C
14/01/19 01:50 EGPI 140150Z AUTO 31019KT 9999 FEW044/// 07/03 Q1017 NW (310°) 21.9mph 7°C 3°C
14/01/19 01:20 EGPI 140120Z AUTO 31019KT 9999 BKN039/// 08/05 Q1016 NW (310°) 21.9mph 8°C 5°C
14/01/19 00:50 EGPI 140050Z AUTO 31018KT 9999 FEW027/// SCT038/// 07/04 Q1016 RERA NW (310°) 20.7mph 7°C 4°C
14/01/19 00:20 EGPI 140020Z AUTO 31020KT 9999 FEW020/// BKN039/// 07/05 Q1016 RERA NW (310°) 23.0mph 7°C 5°C
13/01/19 23:50 EGPI 132350Z AUTO 31018KT 9999 BKN044/// 07/04 Q1016 NW (310°) 20.7mph 7°C 4°C
13/01/19 23:20 EGPI 132320Z AUTO 31018KT 9999 FEW027/// 08/06 Q1015 RERA NW (310°) 20.7mph 8°C 6°C
13/01/19 22:50 EGPI 132250Z AUTO 32019KT 9999 FEW020/// SCT041/// 07/05 Q1015 RERA NW (320°) 21.9mph 7°C 5°C
13/01/19 22:20 EGPI 132220Z AUTO 31018KT 9999 FEW026/// 08/06 Q1015 NW (310°) 20.7mph 8°C 6°C
13/01/19 21:50 EGPI 132150Z AUTO 31018KT 9999 NCD 07/05 Q1014 RERA NW (310°) 20.7mph 7°C 5°C
13/01/19 21:20 EGPI 132120Z AUTO 30022KT 9999 FEW030/// SCT038/// 07/06 Q1014 RERA WNW (300°) 25.3mph 7°C 6°C
13/01/19 20:50 EGPI 132050Z AUTO 30022KT 9999 FEW027/// 08/05 Q1014 WNW (300°) 25.3mph 8°C 5°C
13/01/19 20:20 EGPI 132020Z AUTO 31022KT 9999 FEW028/// 08/05 Q1013 RERA NW (310°) 25.3mph 8°C 5°C
13/01/19 19:50 EGPI 131950Z AUTO 30024KT 9999 FEW023/// SCT035/// 08/06 Q1013 RERA WNW (300°) 27.6mph 8°C 6°C
13/01/19 19:20 EGPI 131920Z AUTO 30025KT 9999 FEW026/// SCT033/// 08/06 Q1013 RERA WNW (300°) 28.8mph 8°C 6°C
13/01/19 18:50 EGPI 131850Z AUTO 30027KT 270V330 6000 RA FEW025/// SCT036/// 08/06 Q1012 RA WNW (300°) 31.1mph 8°C 6°C
13/01/19 18:20 EGPI 131820Z 30026KT 9999 VCSH FEW042 BKN049 08/05 Q1012 VCSH WNW (300°) 29.9mph 8°C 5°C
13/01/19 17:50 EGPI 131750Z 31021KT 270V340 9999 VCSH FEW027 BKN049 07/06 Q1012 VCSH NW (310°) 24.2mph 7°C 6°C
13/01/19 17:20 EGPI 131720Z 30024KT 9999 VCSH FEW028 BKN046 08/05 Q1012 VCSH WNW (300°) 27.6mph 8°C 5°C
13/01/19 16:50 EGPI 131650Z 29026KT 9999 VCSH BKN048 08/05 Q1011 VCSH WNW (290°) 29.9mph 8°C 5°C
13/01/19 16:20 EGPI 131620Z 31020G30KT 9999 VCSH BKN048 08/06 Q1011 VCSH NW (310°) 23.0mph 34.5mph 8°C 6°C
13/01/19 15:50 EGPI 131550Z 30026G37KT 9999 VCSH BKN047 08/06 Q1011 VCSH WNW (300°) 29.9mph 42.6mph 8°C 6°C
13/01/19 15:20 EGPI 131520Z 30023KT 9999 FEW025 BKN045 08/07 Q1011 WNW (300°) 26.5mph 8°C 7°C
13/01/19 14:50 EGPI 131450Z 30024KT 9999 VCSH FEW027 BKN048 09/06 Q1010 VCSH WNW (300°) 27.6mph 9°C 6°C
13/01/19 14:20 EGPI 131420Z 29026KT 9999 FEW029 BKN049 09/06 Q1011 WNW (290°) 29.9mph 9°C 6°C
13/01/19 13:50 EGPI 131350Z AUTO 30024KT 9999 BKN045/// 08/06 Q1011 RERA WNW (300°) 27.6mph 8°C 6°C
13/01/19 13:20 EGPI 131320Z AUTO 30022KT 9999 BKN048/// 09/07 Q1011 RERA WNW (300°) 25.3mph 9°C 7°C
13/01/19 12:50 EGPI 131250Z AUTO 29025KT 9999 FEW031/// 09/06 Q1011 RERA WNW (290°) 28.8mph 9°C 6°C
13/01/19 12:20 EGPI 131220Z AUTO 30023KT 9999 NCD 09/06 Q1010 RERA WNW (300°) 26.5mph 9°C 6°C
13/01/19 11:50 EGPI 131150Z AUTO 30025G36KT 8000 -RA FEW032/// BKN046/// 09/05 Q1011 -RA WNW (300°) 28.8mph 41.4mph 9°C 5°C
13/01/19 11:20 EGPI 131120Z AUTO 30023KT 9000 NCD 09/06 Q1010 RERA WNW (300°) 26.5mph 9°C 6°C
13/01/19 10:50 EGPI 131050Z AUTO 30024KT 9999 FEW023/// 09/07 Q1010 RERA WNW (300°) 27.6mph 9°C 7°C
13/01/19 10:20 EGPI 131020Z AUTO 30025KT 9999 SCT025/// BKN045/// 09/07 Q1010 RERA WNW (300°) 28.8mph 9°C 7°C
13/01/19 09:50 EGPI 130950Z AUTO 29025G35KT 9999 BKN044/// 10/07 Q1010 WNW (290°) 28.8mph 40.3mph 10°C 7°C
13/01/19 09:20 EGPI 130920Z AUTO 29029KT 9999 BKN039/// 10/07 Q1010 WNW (290°) 33.4mph 10°C 7°C
13/01/19 08:50 EGPI 130850Z AUTO 29025KT 9999 BKN030/// BKN041/// 10/08 Q1010 WNW (290°) 28.8mph 10°C 8°C
13/01/19 08:20 EGPI 130820Z AUTO 29027G38KT 8000 FEW020/// BKN027/// 10/08 Q1010 WNW (290°) 31.1mph 43.7mph 10°C 8°C
13/01/19 07:50 EGPI 130750Z AUTO 29026G36KT 9999 FEW013/// BKN020/// 10/08 Q1010 WNW (290°) 29.9mph 41.4mph 10°C 8°C
13/01/19 07:20 EGPI 130720Z AUTO 29026KT 8000 FEW006/// BKN018/// 10/09 Q1010 WNW (290°) 29.9mph 10°C 9°C
13/01/19 06:50 EGPI 130650Z AUTO 29026G38KT 9999 BKN006/// BKN014/// 10/10 Q1011 RERA WNW (290°) 29.9mph 43.7mph 10°C 10°C
13/01/19 06:20 EGPI 130620Z AUTO 28027KT 2800 BR OVC006/// 10/10 Q1011 RERA BR W (280°) 31.1mph 10°C 10°C
13/01/19 05:50 EGPI 130550Z AUTO 28026KT 1900 -DZ BKN005/// SCT013/// 10/10 Q1011 -DZ W (280°) 29.9mph 10°C 10°C
13/01/19 05:20 EGPI 130520Z AUTO 28025KT 4200 BR BKN005/// 10/10 Q1011 REDZ BR W (280°) 28.8mph 10°C 10°C
13/01/19 04:50 EGPI 130450Z AUTO 28027KT 250V310 4500 BR OVC005/// 10/10 Q1011 RERA BR W (280°) 31.1mph 10°C 10°C
13/01/19 04:20 EGPI 130420Z AUTO 27024G34KT 250V310 3200 -DZ OVC004/// 10/10 Q1012 -DZ W (270°) 27.6mph 39.1mph 10°C 10°C
13/01/19 03:50 EGPI 130350Z AUTO 27025KT 5000 BR OVC004/// 10/10 Q1012 RERA BR W (270°) 28.8mph 10°C 10°C
13/01/19 03:20 EGPI 130320Z AUTO 27025KT 3400 BR OVC004/// 10/10 Q1012 RERA BR W (270°) 28.8mph 10°C 10°C
13/01/19 02:50 EGPI 130250Z AUTO 27024KT 2400 BR OVC004/// 10/09 Q1013 RERA BR W (270°) 27.6mph 10°C 9°C
13/01/19 02:20 EGPI 130220Z AUTO 27024G34KT 3900 -RADZ OVC005/// 10/09 Q1013 -RA -DZ W (270°) 27.6mph 39.1mph 10°C 9°C